Time;durP1;ratioP1;P1;durP2;ratioP2;P2;SDS_P1;SDS_P2;PMS_P1;PMS_P2;Temp;Humidity;BMP_temperature;BMP_pressure;BME280_temperature;BME280_humidity;BME280_pressure;Samples;Min_cycle;Max_cycle;Signal;HPM_P1;HPM_P2
2021/05/28 00:00:45;;;;;;;11.20;5.20;;;;;;;20.17;51.36;99092.34;4877709;29;20061;-82
2021/05/28 00:03:11;;;;;;;12.27;5.30;;;;;;;20.68;51.35;99156.47;4877619;29;20493;-82
2021/05/28 00:05:36;;;;;;;5.68;4.95;;;;;;;19.76;51.20;99010.69;4877672;29;20024;-82
2021/05/28 00:08:02;;;;;;;6.00;5.40;;;;;;;20.97;51.09;99191.94;4876352;29;20025;-83
2021/05/28 00:10:28;;;;;;;5.97;5.30;;;;;;;21.00;51.29;99186.06;4878557;29;20478;-82
2021/05/28 00:12:54;;;;;;;7.45;6.47;;;;;;;20.77;51.24;99150.38;4880049;29;20525;-82
2021/05/28 00:15:19;;;;;;;5.82;4.82;;;;;;;19.08;51.19;98923.59;4881308;29;20029;-83
2021/05/28 00:17:45;;;;;;;5.38;4.78;;;;;;;20.58;51.21;99122.31;4881201;29;20021;-82
2021/05/28 00:20:13;;;;;;;9.57;5.70;;;;;;;20.84;51.11;99153.72;4880934;29;20033;-83
2021/05/28 00:22:39;;;;;;;6.15;4.93;;;;;;;20.68;51.56;99148.41;4880998;29;20104;-83
2021/05/28 00:25:05;;;;;;;7.15;5.43;;;;;;;20.90;51.12;99160.75;4880926;29;20549;-77
2021/05/28 00:27:31;;;;;;;5.65;5.07;;;;;;;20.52;51.27;99123.31;4881135;29;20125;-77
2021/05/28 00:29:58;;;;;;;7.65;5.40;;;;;;;20.86;51.16;99146.22;4881099;29;20029;-77
2021/05/28 00:32:24;;;;;;;6.25;5.35;;;;;;;20.04;51.09;99028.41;4881009;29;20032;-77
2021/05/28 00:34:49;;;;;;;5.95;4.95;;;;;;;21.01;50.97;99185.00;4879796;29;20100;-76
2021/05/28 00:37:15;;;;;;;6.35;5.45;;;;;;;20.83;50.98;99130.63;4880744;29;20033;-77
2021/05/28 00:39:41;;;;;;;5.75;5.20;;;;;;;20.78;51.16;99125.19;4879781;29;20043;-76
2021/05/28 00:42:06;;;;;;;5.85;5.30;;;;;;;20.49;50.94;99097.00;4880942;29;20029;-77
2021/05/28 00:44:32;;;;;;;6.22;5.63;;;;;;;20.70;51.14;99116.78;4880872;29;20499;-77
2021/05/28 00:46:58;;;;;;;9.00;5.53;;;;;;;20.28;51.29;99071.84;4880829;29;20033;-77
2021/05/28 00:49:23;;;;;;;5.88;5.28;;;;;;;19.91;51.25;99005.50;4879509;29;20108;-77
2021/05/28 00:51:49;;;;;;;5.45;4.95;;;;;;;20.45;51.25;99107.44;4879271;29;20143;-77
2021/05/28 00:54:15;;;;;;;6.35;5.55;;;;;;;20.70;51.41;99173.94;4880753;29;20058;-77
2021/05/28 00:56:40;;;;;;;7.15;5.28;;;;;;;20.19;51.65;99097.47;4880556;29;20516;-76
2021/05/28 00:59:07;;;;;;;7.75;5.82;;;;;;;20.37;51.47;99126.63;4880631;29;20033;-77
2021/05/28 01:01:33;;;;;;;6.63;4.97;;;;;;;20.14;51.58;99075.97;4880229;29;20033;-78
2021/05/28 01:03:58;;;;;;;6.78;4.85;;;;;;;20.11;51.83;99076.47;4880215;29;20033;-77
2021/05/28 01:06:25;;;;;;;6.72;5.85;;;;;;;20.55;51.70;99144.28;4880277;29;20032;-77
2021/05/28 01:08:51;;;;;;;7.10;5.53;;;;;;;20.58;51.71;99151.81;4880327;29;20084;-77
2021/05/28 01:11:16;;;;;;;6.95;5.85;;;;;;;20.04;51.79;99071.28;4880164;29;20024;-76
2021/05/28 01:13:41;;;;;;;6.88;5.35;;;;;;;20.19;51.76;99086.75;4880125;29;20024;-77
2021/05/28 01:16:07;;;;;;;6.53;5.72;;;;;;;20.53;51.74;99138.34;4880279;29;20406;-77
2021/05/28 01:18:32;;;;;;;6.53;5.53;;;;;;;19.88;51.83;99048.06;4878946;29;20040;-77
2021/05/28 01:20:58;;;;;;;9.13;5.82;;;;;;;19.94;52.05;99045.19;4879527;29;20044;-77
2021/05/28 01:23:23;;;;;;;6.15;5.65;;;;;;;20.41;51.66;99108.19;4880083;29;20060;-77
2021/05/28 01:25:49;;;;;;;6.32;5.60;;;;;;;20.16;51.65;99079.22;4880041;29;20024;-77
2021/05/28 01:28:14;;;;;;;5.88;5.30;;;;;;;20.31;51.85;99098.94;4878786;29;20023;-77
2021/05/28 01:30:40;;;;;;;6.28;5.03;;;;;;;20.17;51.77;99078.16;4879973;29;20108;-77
2021/05/28 01:33:06;;;;;;;6.78;5.50;;;;;;;20.55;51.96;99141.59;4879872;29;20029;-76
2021/05/28 01:35:31;;;;;;;7.70;5.53;;;;;;;20.44;52.04;99135.31;4879900;29;20033;-76
2021/05/28 01:37:57;;;;;;;7.18;5.88;;;;;;;20.36;51.86;99100.06;4879762;29;20517;-77
2021/05/28 01:40:23;;;;;;;7.22;5.70;;;;;;;20.49;51.95;99135.38;4879896;29;20040;-77
2021/05/28 01:42:50;;;;;;;6.80;5.65;;;;;;;20.14;52.09;99090.19;4879863;29;20035;-76
2021/05/28 01:45:16;;;;;;;7.38;6.10;;;;;;;20.17;51.93;99121.03;4878498;29;20521;-76
2021/05/28 01:47:42;;;;;;;6.75;5.82;;;;;;;20.13;52.32;99112.69;4879532;29;20027;-76
2021/05/28 01:50:10;;;;;;;7.00;5.03;;;;;;;20.28;52.26;99139.66;4879594;29;20029;-76
2021/05/28 01:52:36;;;;;;;6.82;5.32;;;;;;;19.95;52.32;99111.09;4879261;29;20053;-77
2021/05/28 01:55:02;;;;;;;6.53;5.82;;;;;;;19.62;52.36;99077.22;4879425;29;20029;-76
2021/05/28 01:57:28;;;;;;;6.70;5.55;;;;;;;20.04;52.53;99140.97;4880025;29;20095;-76
2021/05/28 01:59:53;;;;;;;7.88;5.78;;;;;;;19.95;52.64;99137.09;4878157;29;20029;-76
2021/05/28 02:02:19;;;;;;;7.07;5.85;;;;;;;19.61;52.72;99118.44;4879430;29;20029;-76
2021/05/28 02:04:44;;;;;;;7.28;5.32;;;;;;;19.37;52.70;99071.47;4879323;29;20081;-76
2021/05/28 02:07:11;;;;;;;6.75;5.70;;;;;;;19.20;52.74;99038.56;4879004;29;20466;-76
2021/05/28 02:09:37;;;;;;;6.90;5.28;;;;;;;19.20;52.81;99042.03;4879194;29;20471;-76
2021/05/28 02:12:03;;;;;;;7.82;6.07;;;;;;;19.13;52.73;99022.66;4877987;29;20029;-76
2021/05/28 02:14:30;;;;;;;8.00;5.50;;;;;;;19.79;52.63;99132.59;4879488;29;20417;-76
2021/05/28 02:16:55;;;;;;;6.93;6.00;;;;;;;19.50;52.68;99079.16;4879149;29;20035;-76
2021/05/28 02:19:22;;;;;;;8.18;6.32;;;;;;;19.60;52.68;99094.56;4879337;29;20026;-76
2021/05/28 02:21:49;;;;;;;10.43;5.95;;;;;;;19.82;52.56;99137.47;4878828;29;20081;-77
2021/05/28 02:24:15;;;;;;;6.85;5.53;;;;;;;19.42;52.37;99076.91;4878870;29;20041;-77
2021/05/28 02:26:45;;;;;;;6.65;5.95;;;;;;;19.74;52.76;99133.34;4879086;29;20467;-76
2021/05/28 02:29:11;;;;;;;6.50;5.90;;;;;;;19.42;52.75;99100.19;4877672;29;20399;-76
2021/05/28 02:31:37;;;;;;;5.93;5.32;;;;;;;19.62;52.91;99133.44;4878842;29;20025;-76
2021/05/28 02:34:04;;;;;;;6.50;5.75;;;;;;;19.44;53.00;99114.13;4878712;29;20025;-77
2021/05/28 02:36:30;;;;;;;7.60;5.05;;;;;;;18.96;52.94;99046.78;4878722;29;20036;-76
2021/05/28 02:38:55;;;;;;;6.13;5.53;;;;;;;19.01;53.09;99046.03;4877384;29;20451;-76
2021/05/28 02:41:21;;;;;;;6.53;5.90;;;;;;;19.29;53.01;99112.03;4878653;29;20031;-77
2021/05/28 02:43:46;;;;;;;6.15;5.32;;;;;;;19.15;53.04;99100.84;4878637;29;20081;-77
2021/05/28 02:46:12;;;;;;;7.35;5.43;;;;;;;19.00;53.04;99068.50;4878536;29;20044;-77
2021/05/28 02:48:37;;;;;;;5.47;4.75;;;;;;;18.85;53.04;99041.50;4878312;29;20076;-77
2021/05/28 02:51:03;;;;;;;5.65;4.97;;;;;;;18.98;52.90;99068.75;4878224;29;20053;-76
2021/05/28 02:53:33;;;;;;;5.78;5.10;;;;;;;18.99;52.99;99061.53;4878600;29;20028;-77
2021/05/28 02:56:05;;;;;;;8.33;5.17;;;;;;;19.35;52.76;99132.50;4878758;29;20451;-76
2021/05/28 02:58:32;;;;;;;4.78;4.38;;;;;;;19.37;52.60;99157.16;4878329;29;20505;-77
2021/05/28 03:00:57;;;;;;;6.32;4.85;;;;;;;19.11;52.64;99106.94;4878385;29;20467;-76
2021/05/28 03:03:23;;;;;;;6.03;5.53;;;;;;;19.32;52.87;99157.88;4878327;29;20025;-78
2021/05/28 03:05:50;;;;;;;7.95;5.15;;;;;;;18.98;52.77;99124.94;4878444;29;20025;-76
2021/05/28 03:08:16;;;;;;;6.95;5.38;;;;;;;18.71;52.88;99081.94;4877035;29;20478;-77
2021/05/28 03:10:42;;;;;;;6.10;5.03;;;;;;;18.96;52.75;99110.16;4878299;29;20099;-76
2021/05/28 03:13:07;;;;;;;5.65;4.95;;;;;;;19.27;52.54;99170.34;4878224;29;20052;-76
2021/05/28 03:15:33;;;;;;;6.53;5.65;;;;;;;18.85;52.67;99117.22;4878327;29;20033;-76
2021/05/28 03:17:59;;;;;;;7.18;5.03;;;;;;;19.08;53.03;99137.66;4878198;29;20081;-76
2021/05/28 03:20:34;;;;;;;6.63;4.97;;;;;;;18.58;52.77;99058.16;4876854;29;20033;-76
2021/05/28 03:23:00;;;;;;;9.43;5.88;;;;;;;18.51;52.85;99062.81;4878059;29;20044;-76
2021/05/28 03:25:25;;;;;;;6.00;5.38;;;;;;;18.93;52.51;99106.13;4878049;29;20061;-76
2021/05/28 03:27:50;;;;;;;5.93;4.93;;;;;;;19.20;52.74;99142.94;4878270;29;20517;-76
2021/05/28 03:30:17;;;;;;;7.47;5.57;;;;;;;18.50;52.58;99022.97;4878053;29;20021;-76
2021/05/28 03:32:42;;;;;;;6.07;5.45;;;;;;;19.03;52.59;99119.66;4877893;29;20035;-76
2021/05/28 03:35:08;;;;;;;7.03;5.47;;;;;;;19.41;52.45;99163.63;4877863;29;20025;-76
2021/05/28 03:37:34;;;;;;;7.90;5.15;;;;;;;19.41;52.45;99160.16;4877867;29;20036;-76
2021/05/28 03:40:01;;;;;;;8.95;4.90;;;;;;;19.55;52.21;99153.41;4878141;29;20029;-77
2021/05/28 03:42:26;;;;;;;7.45;5.00;;;;;;;19.57;52.16;99164.69;4877694;29;20036;-76
2021/05/28 03:44:51;;;;;;;9.25;5.60;;;;;;;18.67;52.03;99005.94;4877474;29;20025;-76
2021/05/28 03:47:18;;;;;;;8.50;5.55;;;;;;;19.37;52.05;99111.63;4876315;29;20388;-77
2021/05/28 03:49:44;;;;;;;5.85;4.80;;;;;;;19.66;51.93;99160.53;4877498;29;20494;-77
2021/05/28 03:52:10;;;;;;;6.07;5.15;;;;;;;19.82;51.75;99156.22;4876199;29;20049;-76
2021/05/28 03:54:36;;;;;;;6.32;5.22;;;;;;;19.29;51.68;99070.00;4876323;29;20056;-77
2021/05/28 03:57:02;;;;;;;7.82;6.18;;;;;;;19.82;51.77;99148.16;4877495;29;20494;-77
2021/05/28 03:59:27;;;;;;;6.32;5.72;;;;;;;19.83;51.61;99141.75;4877719;29;20073;-77
2021/05/28 04:01:53;;;;;;;7.60;6.00;;;;;;;19.74;51.73;99111.91;4877526;29;20025;-77
2021/05/28 04:04:18;;;;;;;7.70;5.88;;;;;;;20.09;51.89;99167.84;4876406;29;20021;-77
2021/05/28 04:06:43;;;;;;;9.15;5.93;;;;;;;19.17;51.71;99002.38;4877335;29;20040;-77
2021/05/28 04:09:09;;;;;;;9.63;7.07;;;;;;;19.45;51.35;99024.72;4877394;29;20550;-76
2021/05/28 04:11:34;;;;;;;8.65;5.93;;;;;;;19.90;51.32;99096.84;4877566;29;20025;-77
2021/05/28 04:14:00;;;;;;;9.23;5.90;;;;;;;19.60;51.34;99025.75;4877356;29;20025;-77
2021/05/28 04:16:25;;;;;;;10.20;5.57;;;;;;;20.45;51.50;99163.75;4876138;29;20508;-77
2021/05/28 04:18:51;;;;;;;9.63;6.72;;;;;;;20.31;51.43;99128.44;4877620;29;20029;-77
2021/05/28 04:21:16;;;;;;;8.13;5.80;;;;;;;20.39;51.73;99147.81;4877389;29;20044;-77
2021/05/28 04:23:41;;;;;;;7.80;6.28;;;;;;;20.42;51.95;99148.16;4877341;29;20453;-77
2021/05/28 04:26:07;;;;;;;7.53;6.30;;;;;;;20.28;51.77;99109.38;4877290;29;20418;-76
2021/05/28 04:28:32;;;;;;;9.57;6.22;;;;;;;20.67;51.90;99158.34;4877236;29;20029;-77
2021/05/28 04:30:58;;;;;;;8.82;6.93;;;;;;;19.95;52.08;99057.50;4875885;29;20037;-76
2021/05/28 04:33:24;;;;;;;10.75;6.80;;;;;;;20.03;52.08;99066.97;4875934;29;20036;-76
2021/05/28 04:35:50;;;;;;;11.80;7.90;;;;;;;20.66;52.53;99163.97;4877315;29;20044;-76
2021/05/28 04:38:16;;;;;;;14.13;8.63;;;;;;;20.28;53.43;99125.44;4877218;29;20417;-76
2021/05/28 04:40:42;;;;;;;9.85;8.25;;;;;;;20.34;54.10;99163.84;4877354;29;20041;-76
2021/05/28 04:43:08;;;;;;;8.65;7.80;;;;;;;20.37;54.41;99166.03;4877299;29;20033;-75
2021/05/28 04:45:34;;;;;;;10.05;8.15;;;;;;;20.22;54.79;99148.72;4877265;29;20036;-78
2021/05/28 04:47:59;;;;;;;11.68;7.30;;;;;;;20.17;54.95;99137.94;4877331;29;20451;-78
2021/05/28 04:50:30;;;;;;;12.45;7.95;;;;;;;20.35;55.17;99163.59;4877381;29;20081;-78
2021/05/28 04:53:03;;;;;;;9.95;8.90;;;;;;;19.70;55.23;99041.16;4877266;29;20517;-78
2021/05/28 04:55:30;;;;;;;10.73;7.90;;;;;;;20.17;55.06;99102.28;4877442;29;20057;-78
2021/05/28 04:57:55;;;;;;;10.35;8.82;;;;;;;20.59;55.49;99156.13;4878210;29;20540;-78
2021/05/28 05:00:22;;;;;;;11.23;8.40;;;;;;;20.51;55.50;99129.75;4879036;29;20052;-78
2021/05/28 05:02:48;;;;;;;10.23;9.07;;;;;;;20.73;55.51;99153.84;4880864;29;20081;-78
2021/05/28 05:05:15;;;;;;;11.38;8.70;;;;;;;20.78;55.65;99152.00;4880657;29;20033;-77
2021/05/28 05:07:41;;;;;;;9.68;8.27;;;;;;;20.56;55.72;99108.34;4880579;29;20032;-78
2021/05/28 05:10:06;;;;;;;10.68;8.48;;;;;;;20.67;55.56;99136.06;4879132;29;20024;-78
2021/05/28 05:12:32;;;;;;;11.27;9.15;;;;;;;20.42;55.81;99093.72;4880001;29;20024;-77
2021/05/28 05:14:58;;;;;;;9.40;8.43;;;;;;;20.53;55.98;99124.94;4880025;29;20036;-78
2021/05/28 05:17:24;;;;;;;13.63;8.85;;;;;;;20.77;56.28;99165.69;4878780;29;20036;-77
2021/05/28 05:19:50;;;;;;;11.45;8.50;;;;;;;20.19;56.06;99073.34;4880042;29;20021;-78
2021/05/28 05:22:15;;;;;;;11.10;8.25;;;;;;;20.79;56.32;99171.59;4880114;29;20462;-77
2021/05/28 05:24:41;;;;;;;10.10;8.50;;;;;;;20.34;56.62;99107.53;4869443;29;20044;-77
2021/05/28 05:27:06;;;;;;;15.65;8.45;;;;;;;20.35;56.93;99119.88;4866235;29;20062;-77
2021/05/28 05:29:32;;;;;;;12.70;8.60;;;;;;;20.71;56.64;99155.97;4861316;29;20040;-78
2021/05/28 05:31:58;;;;;;;9.25;7.60;;;;;;;20.76;56.74;99204.31;4862558;29;20028;-77
2021/05/28 05:34:24;;;;;;;8.00;7.20;;;;;;;19.99;56.56;99044.41;4877684;29;20029;-77
2021/05/28 05:36:49;;;;;;;12.10;8.80;;;;;;;20.49;56.43;99126.50;4876307;29;20040;-77
2021/05/28 05:39:15;;;;;;;10.10;6.30;;;;;;;20.80;56.32;99179.41;4860679;29;20447;-77
2021/05/28 05:41:40;;;;;;;7.82;6.93;;;;;;;20.46;56.29;99125.13;4866253;29;20025;-78
2021/05/28 05:44:06;;;;;;;8.85;6.55;;;;;;;20.38;56.05;99108.66;4874116;29;20029;-78
2021/05/28 05:46:32;;;;;;;8.43;6.05;;;;;;;20.48;56.09;99120.34;4872635;29;20517;-77
2021/05/28 05:48:58;;;;;;;10.40;5.97;;;;;;;20.40;56.07;99119.97;4873990;29;20033;-78
2021/05/28 05:51:24;;;;;;;7.25;5.72;;;;;;;20.41;56.04;99118.91;4870235;29;20471;-78
2021/05/28 05:56:25;;;;;;;9.23;6.45;;;;;;;20.43;55.81;99116.78;5620300;23;20056;-81
2021/05/28 05:58:51;;;;;;;7.70;5.57;;;;;;;20.31;56.32;99098.13;4899381;29;20500;-83
2021/05/28 06:01:16;;;;;;;11.68;5.85;;;;;;;20.80;56.11;99184.75;4916537;29;20028;-83
2021/05/28 06:03:42;;;;;;;9.38;6.88;;;;;;;20.19;56.21;99084.88;4907238;29;20382;-83
2021/05/28 06:06:07;;;;;;;7.28;5.70;;;;;;;20.49;56.42;99147.97;4905023;29;20024;-83
2021/05/28 06:08:33;;;;;;;11.45;6.95;;;;;;;20.70;56.45;99152.47;4906188;29;20027;-84
2021/05/28 06:10:58;;;;;;;7.13;6.43;;;;;;;20.75;56.67;99173.97;4904571;29;20059;-83
2021/05/28 06:13:24;;;;;;;8.50;7.25;;;;;;;20.98;56.59;99185.50;4900200;29;20480;-82
2021/05/28 06:15:50;;;;;;;7.80;6.03;;;;;;;21.02;55.97;99178.56;4912938;29;20449;-83
2021/05/28 06:18:16;;;;;;;8.80;6.35;;;;;;;20.90;56.33;99171.47;4903596;29;20060;-84
2021/05/28 06:20:42;;;;;;;10.05;7.40;;;;;;;21.03;55.61;99181.00;4916993;29;20031;-82
2021/05/28 06:23:08;;;;;;;9.25;4.75;;;;;;;21.26;54.99;99198.66;4906480;29;20137;-76
2021/05/28 06:25:33;;;;;;;5.85;4.60;;;;;;;20.93;54.60;99130.72;4900483;29;20123;-77
2021/05/28 06:27:59;;;;;;;5.93;5.25;;;;;;;21.50;54.50;99178.44;4916522;29;20445;-75
2021/05/28 06:30:24;;;;;;;7.05;5.70;;;;;;;21.51;54.26;99161.25;4904340;29;20044;-76
2021/05/28 06:32:50;;;;;;;7.63;5.43;;;;;;;21.47;54.35;99140.53;4897658;29;20096;-76
2021/05/28 06:35:15;;;;;;;7.97;6.70;;;;;;;21.81;54.21;99170.59;4907712;29;20036;-76
2021/05/28 06:37:41;;;;;;;8.40;7.22;;;;;;;21.89;54.12;99175.47;4914038;29;20096;-77
2021/05/28 06:40:07;;;;;;;9.15;6.97;;;;;;;21.53;54.17;99118.81;4914108;29;20110;-76
2021/05/28 06:42:35;;;;;;;6.65;6.05;;;;;;;21.47;54.03;99097.56;4895983;29;20033;-76
2021/05/28 06:45:00;;;;;;;8.75;6.65;;;;;;;21.50;53.95;99097.84;4901457;29;20055;-76
2021/05/28 06:47:26;;;;;;;10.75;6.85;;;;;;;21.59;54.01;99118.88;4915436;29;20465;-76
2021/05/28 06:49:52;;;;;;;8.13;6.60;;;;;;;21.98;54.20;99173.91;4914488;29;20070;-77
2021/05/28 06:52:19;;;;;;;9.93;6.93;;;;;;;21.83;54.42;99163.09;4914786;29;20464;-76
2021/05/28 06:54:45;;;;;;;8.23;7.30;;;;;;;21.50;54.58;99110.47;4902683;29;20043;-77
2021/05/28 06:57:10;;;;;;;12.20;8.40;;;;;;;22.02;54.82;99193.00;4893574;29;20040;-77
2021/05/28 06:59:37;;;;;;;10.73;8.57;;;;;;;21.42;54.84;99089.47;4890689;29;20250;-77
2021/05/28 07:02:04;;;;;;;11.30;8.25;;;;;;;21.41;55.13;99098.59;4895318;29;20524;-77
2021/05/28 07:04:29;;;;;;;9.98;8.80;;;;;;;21.95;55.34;99179.00;4896420;29;20033;-76
2021/05/28 07:06:54;;;;;;;11.13;9.85;;;;;;;21.39;55.17;99090.00;4885575;29;20027;-76
2021/05/28 07:09:20;;;;;;;10.43;9.40;;;;;;;21.97;55.53;99188.44;4886618;29;20029;-76
2021/05/28 07:11:45;;;;;;;11.95;9.23;;;;;;;21.96;55.52;99194.06;4896695;29;20028;-77
2021/05/28 07:14:11;;;;;;;11.68;8.82;;;;;;;22.01;55.55;99192.22;4882798;29;20090;-76
2021/05/28 07:16:36;;;;;;;10.98;9.25;;;;;;;21.97;55.60;99184.94;4889175;29;20032;-76
2021/05/28 07:19:04;;;;;;;10.77;8.85;;;;;;;21.99;55.38;99188.16;4884929;29;20029;-76
2021/05/28 07:21:29;;;;;;;14.25;8.98;;;;;;;21.83;55.22;99155.81;4890875;29;20029;-77
2021/05/28 07:23:54;;;;;;;11.60;9.10;;;;;;;21.99;55.39;99174.72;4894209;29;20092;-76
2021/05/28 07:26:20;;;;;;;9.77;8.75;;;;;;;21.94;55.59;99166.63;4896365;29;20044;-77
2021/05/28 07:28:46;;;;;;;13.05;9.60;;;;;;;22.08;55.59;99183.94;4896527;29;20029;-76
2021/05/28 07:31:11;;;;;;;15.43;10.13;;;;;;;21.82;55.45;99135.41;4896625;29;20564;-77
2021/05/28 07:33:37;;;;;;;12.57;9.60;;;;;;;22.04;55.25;99167.53;4889726;29;20025;-76
2021/05/28 07:36:04;;;;;;;13.27;10.70;;;;;;;21.86;55.03;99136.50;4888380;29;20064;-76
2021/05/28 07:38:31;;;;;;;13.25;11.13;;;;;;;22.14;55.33;99189.06;4892198;29;20051;-76
2021/05/28 07:40:57;;;;;;;15.02;11.68;;;;;;;22.19;55.44;99199.03;4877526;29;20510;-76
2021/05/28 07:43:22;;;;;;;11.95;10.65;;;;;;;22.20;55.46;99212.22;4878907;29;20474;-75
2021/05/28 07:45:51;;;;;;;11.80;10.48;;;;;;;22.03;55.49;99184.72;4882679;29;20523;-76
2021/05/28 07:48:20;;;;;;;12.35;11.13;;;;;;;22.00;55.31;99152.16;4881741;29;20489;-77
2021/05/28 07:50:47;;;;;;;13.07;10.88;;;;;;;22.48;54.83;99210.22;4880164;29;20033;-76
2021/05/28 07:53:15;;;;;;;12.40;10.85;;;;;;;22.38;54.46;99183.28;4889671;29;20056;-76
2021/05/28 07:55:41;;;;;;;11.50;9.48;;;;;;;22.46;53.74;99206.97;4891237;29;20036;-76
2021/05/28 07:58:06;;;;;;;11.23;10.00;;;;;;;22.69;53.44;99208.41;4890025;29;20053;-76
2021/05/28 08:00:32;;;;;;;10.48;9.13;;;;;;;22.82;53.00;99205.22;4877535;29;20060;-75
2021/05/28 08:02:59;;;;;;;10.88;8.45;;;;;;;22.95;52.89;99204.72;4884842;29;20033;-76
2021/05/28 08:05:25;;;;;;;10.38;9.25;;;;;;;22.97;52.68;99172.13;4885076;29;20557;-76
2021/05/28 08:07:50;;;;;;;10.90;9.27;;;;;;;22.49;52.35;99080.00;4884317;29;20111;-77
2021/05/28 08:10:16;;;;;;;10.60;8.93;;;;;;;22.96;52.11;99151.66;4887317;29;20080;-76
2021/05/28 08:12:41;;;;;;;10.32;8.93;;;;;;;22.82;52.00;99116.41;4895957;29;20485;-77
2021/05/28 08:15:08;;;;;;;10.20;8.80;;;;;;;23.28;51.61;99178.38;4893190;29;20032;-77
2021/05/28 08:17:33;;;;;;;9.85;7.10;;;;;;;23.41;51.01;99188.59;4894989;29;20044;-77
2021/05/28 08:19:59;;;;;;;8.55;6.82;;;;;;;23.10;50.31;99128.53;4887957;29;20035;-77
2021/05/28 08:22:24;;;;;;;8.45;7.22;;;;;;;23.58;49.86;99180.25;4895363;29;20067;-77
2021/05/28 08:24:49;;;;;;;7.35;6.55;;;;;;;23.51;49.33;99172.41;4887411;29;20029;-77
2021/05/28 08:27:16;;;;;;;9.23;6.90;;;;;;;23.80;49.19;99185.38;4892198;29;20036;-76
2021/05/28 08:29:43;;;;;;;10.60;8.15;;;;;;;23.98;49.11;99187.47;4884983;29;20528;-76
2021/05/28 08:32:08;;;;;;;7.57;6.63;;;;;;;23.70;48.92;99143.03;4879887;29;20165;-76
2021/05/28 08:34:33;;;;;;;6.22;5.40;;;;;;;23.80;47.94;99142.22;4895948;29;20111;-76
2021/05/28 08:36:59;;;;;;;5.03;4.60;;;;;;;24.11;46.75;99172.59;4894115;29;20032;-76
2021/05/28 08:39:24;;;;;;;6.25;4.57;;;;;;;23.78;46.05;99110.13;4899378;29;20025;-76
2021/05/28 08:41:51;;;;;;;7.47;4.93;;;;;;;24.21;45.03;99180.66;4882133;29;20035;-77
2021/05/28 08:44:24;;;;;;;8.90;5.15;;;;;;;24.33;44.95;99178.47;4883728;29;20063;-77
2021/05/28 08:46:53;;;;;;;5.20;3.53;;;;;;;24.17;44.18;99114.84;4888406;29;20092;-77
2021/05/28 08:49:19;;;;;;;6.55;3.60;;;;;;;24.68;43.34;99181.00;4889586;29;20048;-77
2021/05/28 08:51:45;;;;;;;6.88;4.20;;;;;;;24.60;43.04;99143.81;4887654;29;20033;-76
2021/05/28 08:54:10;;;;;;;7.38;5.68;;;;;;;24.42;42.13;99113.94;4888613;29;20025;-76
2021/05/28 08:56:36;;;;;;;6.93;3.70;;;;;;;24.37;42.01;99106.69;4897932;29;20112;-77
2021/05/28 08:59:06;;;;;;;7.68;4.00;;;;;;;24.48;42.14;99121.72;4897813;29;20112;-77
2021/05/28 09:01:34;;;;;;;6.55;5.35;;;;;;;24.78;42.30;99168.53;4889038;29;20029;-75
2021/05/28 09:04:02;;;;;;;6.03;4.90;;;;;;;24.00;42.71;99024.31;4880423;29;20033;-76
2021/05/28 09:06:40;;;;;;;11.13;4.43;;;;;;;25.08;41.95;99162.94;4880302;29;20085;-76
2021/05/28 09:09:14;;;;;;;8.73;4.18;;;;;;;25.13;41.62;99132.38;4880112;29;20490;-76
2021/05/28 09:12:10;;;;;;;18.52;6.03;;;;;;;25.25;40.58;99160.63;4894772;29;20031;-75
2021/05/28 09:14:40;;;;;;;5.55;4.20;;;;;;;25.03;41.62;99120.56;4882006;29;20076;-75
2021/05/28 09:17:10;;;;;;;8.23;3.85;;;;;;;24.97;41.97;99112.75;4898933;29;20489;-75
2021/05/28 09:19:37;;;;;;;4.53;4.00;;;;;;;25.09;41.94;99145.66;4898817;29;20120;-76
2021/05/28 09:22:09;;;;;;;7.68;4.00;;;;;;;25.02;41.48;99126.25;4892983;29;20533;-75
2021/05/28 09:24:40;;;;;;;6.65;3.55;;;;;;;25.00;40.99;99117.63;4897932;29;20044;-76
2021/05/28 09:27:29;;;;;;;5.60;3.42;;;;;;;25.31;39.87;99140.63;4890514;29;20029;-76
2021/05/28 09:30:17;;;;;;;3.67;3.08;;;;;;;25.39;37.92;99130.28;4886674;29;20072;-76
2021/05/28 09:32:45;;;;;;;4.57;3.38;;;;;;;25.46;39.57;99125.34;4898165;29;20032;-77
2021/05/28 09:35:14;;;;;;;5.85;3.80;;;;;;;25.51;39.10;99123.41;4898635;29;20032;-76
2021/05/28 09:37:46;;;;;;;5.10;3.20;;;;;;;25.57;38.54;99116.84;4887560;29;20115;-75
2021/05/28 09:40:23;;;;;;;4.22;2.92;;;;;;;25.49;38.59;99130.97;4889428;29;20033;-78
2021/05/28 09:42:56;;;;;;;5.80;3.38;;;;;;;25.50;37.94;99123.69;4897591;29;20036;-75
2021/05/28 09:45:30;;;;;;;4.93;3.78;;;;;;;25.70;38.43;99123.50;4896136;29;20028;-76
2021/05/28 09:48:22;;;;;;;4.57;3.25;;;;;;;26.22;35.98;99122.63;4896762;29;20402;-76
2021/05/28 09:50:57;;;;;;;4.50;2.88;;;;;;;26.09;36.23;99079.22;4896759;29;20032;-76
2021/05/28 09:53:33;;;;;;;4.45;2.80;;;;;;;26.28;36.09;99115.22;4896754;29;20465;-76
2021/05/28 09:56:19;;;;;;;6.03;2.70;;;;;;;26.31;36.06;99111.94;4897900;29;20024;-76
2021/05/28 09:59:06;;;;;;;3.90;3.10;;;;;;;26.13;35.34;99112.72;4879155;29;20039;-76
2021/05/28 10:01:36;;;;;;;3.45;3.10;;;;;;;25.86;36.66;99083.56;4885071;29;20029;-75
2021/05/28 10:04:04;;;;;;;4.47;3.15;;;;;;;25.66;37.32;99062.97;4896798;29;20079;-75
2021/05/28 10:06:31;;;;;;;4.50;3.10;;;;;;;25.82;37.63;99101.44;4887240;29;20032;-75
2021/05/28 10:08:59;;;;;;;4.32;3.30;;;;;;;25.89;37.46;99099.19;4890983;29;20516;-75
2021/05/28 10:11:26;;;;;;;3.72;2.75;;;;;;;25.63;37.33;99041.88;4891678;29;20041;-74
2021/05/28 10:13:53;;;;;;;6.97;3.58;;;;;;;25.72;36.87;99029.38;4891874;29;20028;-76
2021/05/28 10:16:19;;;;;;;4.63;3.40;;;;;;;26.49;36.61;99100.34;4896170;29;20104;-76
2021/05/28 10:18:45;;;;;;;6.03;3.40;;;;;;;26.35;35.61;99039.91;4879027;29;20116;-76
2021/05/28 10:21:11;;;;;;;6.72;3.42;;;;;;;26.71;35.39;99032.03;4879018;29;20056;-76
2021/05/28 10:23:36;;;;;;;6.03;2.90;;;;;;;27.51;34.66;99102.22;4893660;29;20036;-76
2021/05/28 10:26:02;;;;;;;4.80;2.83;;;;;;;27.54;33.83;99073.72;4905468;29;20159;-77
2021/05/28 10:28:31;;;;;;;4.32;3.40;;;;;;;27.55;33.67;99042.78;4906078;29;20464;-76
2021/05/28 10:30:56;;;;;;;10.27;4.28;;;;;;;28.28;32.94;99090.69;4879040;29;20036;-76
2021/05/28 10:33:24;;;;;;;4.90;3.20;;;;;;;28.59;32.03;99090.81;4899325;29;20032;-75
2021/05/28 10:35:56;;;;;;;7.82;3.90;;;;;;;28.21;31.66;99016.97;4903190;29;20525;-75
2021/05/28 10:38:30;;;;;;;5.80;2.70;;;;;;;28.45;30.98;99076.47;4895214;29;20036;-75
2021/05/28 10:41:19;;;;;;;3.38;1.90;;;;;;;28.26;30.46;99056.81;4896816;29;20465;-75
2021/05/28 10:43:50;;;;;;;5.22;2.30;;;;;;;28.21;30.61;99065.03;4897335;29;20395;-76
2021/05/28 10:46:17;;;;;;;6.80;4.25;;;;;;;28.19;30.77;99057.19;4895887;29;20115;-76
2021/05/28 10:48:43;;;;;;;5.53;3.60;;;;;;;28.68;30.53;99071.84;4896294;29;20052;-76
2021/05/28 10:51:23;;;;;;;7.00;3.22;;;;;;;28.40;30.09;98981.53;4887730;29;20056;-76
2021/05/28 10:53:54;;;;;;;6.22;3.30;;;;;;;28.78;30.04;99068.88;4881204;29;20039;-76
2021/05/28 10:56:20;;;;;;;4.18;2.55;;;;;;;28.11;30.24;99026.13;4882615;29;20193;-76
2021/05/28 10:59:16;;;;;;;7.75;3.10;;;;;;;28.20;30.86;99060.69;4877710;29;20048;-77
2021/05/28 11:01:41;;;;;;;4.75;3.47;;;;;;;28.36;30.61;99062.81;4877597;29;20576;-76
2021/05/28 11:04:08;;;;;;;4.90;3.17;;;;;;;28.32;30.05;99015.66;4888470;29;20033;-76
2021/05/28 11:06:54;;;;;;;6.28;2.50;;;;;;;29.00;26.85;99058.06;4896395;29;20028;-76
2021/05/28 11:09:37;;;;;;;3.28;2.00;;;;;;;28.86;27.91;99002.16;4878587;29;20212;-76
2021/05/28 11:12:14;;;;;;;3.85;2.20;;;;;;;29.22;27.71;99057.22;4895983;29;20050;-77
2021/05/28 11:15:01;;;;;;;4.07;2.22;;;;;;;29.12;27.44;99068.34;4885387;29;20033;-77
2021/05/28 11:17:27;;;;;;;7.15;2.35;;;;;;;28.50;28.42;99018.53;4881069;29;20042;-77
2021/05/28 11:19:57;;;;;;;4.50;2.55;;;;;;;28.40;28.71;99055.66;4886434;29;20032;-77
2021/05/28 11:22:36;;;;;;;4.63;3.13;;;;;;;28.09;29.07;99054.69;4885169;29;20132;-77
2021/05/28 11:25:16;;;;;;;5.85;4.50;;;;;;;27.97;29.58;99066.06;4884352;29;20032;-77
2021/05/28 11:27:44;;;;;;;5.00;2.80;;;;;;;27.67;29.84;99029.53;4892520;29;20112;-77
2021/05/28 11:30:10;;;;;;;4.45;2.20;;;;;;;27.86;29.49;99061.97;4878906;29;20060;-77
2021/05/28 11:32:46;;;;;;;4.50;2.45;;;;;;;27.52;29.40;99025.19;4880517;29;20207;-77
2021/05/28 11:35:15;;;;;;;5.38;2.03;;;;;;;27.67;29.85;99059.38;4887519;29;20025;-77